• Join FlightAware (Why Join?)
  • Login
  • US Flag 
07:54PM EDT


 

Airport Tracker/Info


-or-


 

Live Flight TrackerFlight Track Log ✈ SWA499 ✈ 23-Apr-2013 ✈ KDEN - KMCI

Flight Track Log - Related Links

Times and Time Zones

All times are in EDT time to prevent confusion due to time zone crossing. See the SWA499 flight status page for this flight to view local times or setup timezone preferences in your user account.

Time Position Orientation Groundspeed Altitude Reporting Facility
EDT Latitude Longitude Course Direction KTS MPH feet Rate Location/Type
01:04PM 39.9167 -104.6500 123° Southeast 208 239 7,300  Level Denver TRACON
01:05PM 39.8833 -104.5833 123° Southeast 245 282 9,300 1,440 Climbing Denver TRACON
01:06PM 39.8575 -104.5211 118° Southeast 264 304 9,700 300 Climbing Denver Center
01:07PM 39.8217 -104.4247 116° Southeast 277 319 9,900 720 Climbing Denver Center
01:08PM 39.8075 -104.3156 100° East 314 361 11,400 2,040 Climbing Denver Center
01:09PM 39.7892 -104.1553 98° East 368 423 14,600 2,700 Climbing Denver Center
01:10PM 39.7719 -104.0053 98° East 396 456 17,100 2,100 Climbing Denver Center
01:11PM 39.7558 -103.8561 98° East 416 479 19,000 1,860 Climbing Denver Center
01:12PM 39.7389 -103.7067 98° East 422 486 21,000 1,800 Climbing Denver Center
01:13PM 39.7258 -103.5436 96° East 446 513 22,800 1,680 Climbing Denver Center
01:14PM 39.7114 -103.3422 95° East 474 545 24,500 1,500 Climbing Denver Center
01:15PM 39.6961 -103.1614 96° East 495 570 25,900 1,260 Climbing Denver Center
01:16PM 39.6800 -102.9742 96° East 514 592 27,200 1,500 Climbing Denver Center
01:17PM 39.6633 -102.7858 96° East 520 598 29,100 1,500 Climbing Denver Center
01:18PM 39.6475 -102.5944 96° East 521 600 30,300 1,320 Climbing Denver Center
01:19PM 39.6275 -102.3822 97° East 530 610 31,900 1,200 Climbing Denver Center
01:20PM 39.6142 -102.2314 96° East 530 610 32,900 960 Climbing Denver Center
01:21PM 39.5950 -102.0192 97° East 531 611 34,000 1,200 Climbing Denver Center
01:22PM 39.5769 -101.8047 96° East 535 616 35,500 1,260 Climbing Denver Center
01:23PM 39.5636 -101.6278 96° East 520 598 36,700 720 Climbing Denver Center
01:24PM 39.5467 -101.4242 96° East 512 589 37,000 120 Climbing Denver Center
01:25PM 39.5228 -101.2553 100° East 502 578 37,000  Level Denver Center
01:26PM 39.4944 -101.0608 101° East 500 575 37,000  Level Denver Center
01:28PM 39.4694 -100.8947 101° East 495 570 37,000  Level Denver Center
01:29PM 39.4397 -100.7014 101° East 492 566 37,000  Level Denver Center
01:30PM 39.4142 -100.5381 101° East 488 562 37,000  Level Denver Center
01:31PM 39.3847 -100.3461 101° East 488 562 37,000  Level Denver Center
01:32PM 39.3586 -100.1808 101° East 491 565 37,000  Level Denver Center
01:33PM 39.3161 -99.9928 106° East 487 560 37,000  Level Denver Center
01:34PM 39.2764 -99.8342 108° East 486 559 37,000  Level Denver Center
01:35PM 39.2303 -99.6472 108° East 489 563 37,000  Level Denver Center
01:36PM 39.1867 -99.4733 108° East 492 566 37,000  Level Denver Center
01:37PM 39.1458 -99.3097 108° East 498 573 37,000 -420 Level Denver Center
01:38PM 39.1039 -99.1447 108° East 504 580 36,200 -840 Descending Denver Center
01:39PM 39.0581 -98.9633 108° East 506 582 35,300 -600 Descending Denver Center
01:40PM 39.0239 -98.7892 104° East 505 581 35,000 -240 Descending Denver Center
01:40PM 39.0189 -98.7064 94° East 514 592 35,000  Level Kansas City Center
01:41PM 39.0100 -98.5225 94° East 515 593 35,000  Level Kansas City Center
01:42PM 39.0006 -98.3403 94° East 511 588 35,000  Level Kansas City Center
01:43PM 38.9900 -98.1589 94° East 509 586 35,000  Level Kansas City Center
01:44PM 38.9806 -97.9769 94° East 508 585 35,000  Level Kansas City Center
01:45PM 38.9689 -97.7736 94° East 507 583 35,000  Level Kansas City Center
01:46PM 38.9589 -97.6017 94° East 504 580 35,000  Level Kansas City Center
01:47PM 38.9464 -97.3994 94° East 506 582 35,000  Level Kansas City Center
01:49PM 38.9347 -97.2217 95° East 499 574 35,000  Level Kansas City Center
01:50PM 38.9233 -97.0436 95° East 499 574 35,000 -420 Level Kansas City Center
01:51PM 38.9119 -96.8647 95° East 499 574 34,200 -1,980 Descending Kansas City Center
01:52PM 38.9000 -96.6864 95° East 500 575 30,900 -2,940 Descending Kansas City Center
01:53PM 38.8886 -96.5061 95° East 504 580 28,200 -2,580 Descending Kansas City Center
01:54PM 38.8744 -96.3286 96° East 492 566 25,700 -2,520 Descending Kansas City Center
01:55PM 38.8606 -96.1467 96° East 468 539 23,000 -2,340 Descending Kansas City Center
01:56PM 38.8494 -95.9956 95° East 446 513 20,800 -2,280 Descending Kansas City Center
01:57PM 38.8367 -95.8267 95° East 431 496 18,400 -2,280 Descending Kansas City Center
01:58PM 38.8269 -95.6842 95° East 423 487 16,300 -2,400 Descending Kansas City Center
01:59PM 38.8136 -95.5197 96° East 417 480 13,500 -2,280 Descending Kansas City Center
02:00PM 38.8258 -95.3911 83° East 397 457 11,700 -1,440 Descending Kansas City Center
02:01PM 38.8906 -95.2794 53° Northeast 346 398 10,600 -1,080 Descending Kansas City Center
02:02PM 38.9283 -95.1867 62° Northeast 312 359 9,500 -1,380 Descending Kansas City Center
02:03PM 38.9703 -95.0850 62° Northeast 293 337 7,900 -1,380 Descending Kansas City Center
02:04PM 39.0042 -95.0017 62° Northeast 278 320 6,700 -1,200 Descending Kansas City Center
02:05PM 39.0403 -94.9086 63° Northeast 263 303 5,500 -900 Descending Kansas City Center
02:06PM 39.0700 -94.8311 64° Northeast 253 291 4,900 -720 Descending Kansas City Center
02:07PM 39.1081 -94.7831 44° Northeast 216 249 4,100 -840 Descending Kansas City Center
02:08PM 39.1664 -94.7675 12° North 191 220 3,300 -600 Descending Kansas City Center
02:09PM 39.2103 -94.7539 14° North 171 197 2,900 -600 Descending Kansas City Center
02:10PM 39.2478 -94.7433 12° North 124 143 2,100 -780 Descending Kansas City Center
02:11PM 39.2792 -94.7342 13° North 121 139 1,400 -540 Descending Kansas City Center
02:12PM 39.3108 -94.7242 14° North 118 136 1,100 -300 Descending Kansas City Center